Saint-Noel, Canada
Current Conditions -  °F | °C
As of 3:00 PM on Friday 24 Oct 2014 (Local Time) from CYYY Reporting Station
Broken Clouds Broken Clouds  
Wind Chill: 38°   Ceiling: 8000
Heat Index: 45°   Visibility: 30mi
Dew Point: 32°   Wind: 14mph
Humidity: 61%   Direction: 70°ENE
Pressure: 29.83"   Gusts: 21mph
Location:  48.58°N, 67.83°W
Report Text: CYYY 241900Z 07012G18KT 30SM FEW020 BKN080 07/M00 A2983 RMK SC2AC5 SLP103
Loading
Personal Weather Stations






























Interactive Weather Map
Tropical Storm Tracking
New forecast layout! Learn more

10-Day Weather Forecast

Advertisements
Track Severe Weather on mobile